Latest Weather Observations for Troughton Island

IDW60801

Issued at 3:33 pm WST Tuesday 16 August 2022 (issued every 10 minutes, with the page automatically refreshed every 10 minutes)

About weather observations | Map of weather stations | Latest weather observations for WA | Other Formats
Station Details ID: 001007 Name: TROUGHTON ISLAND Lat: -13.75 Lon: 126.15 Height: 6.0 m
Data from the previous 72 hours. | See also: Recent months at Troughton Island
Date/Time
WST
Temp
°C
App
Temp
°C
Dew
Point
°C
Rel
Hum
%
Delta-T
°C
Wind Press
QNH
hPa
Press
MSL
hPa
Rain since
9am
mm
Dir  Spd
km/h
Gust
km/h
Spd
kts
Gust
kts
16/03:30pm 27.9 23.9 15.2 46 7.7 ENE 30 37 16 20 1012.3 1012.2 0.0
16/03:00pm 28.2 23.7 15.5 46 7.8 ENE 33 43 18 23 1012.1 1012.0 0.0
16/02:30pm 28.7 23.3 13.8 40 8.9 ENE 35 43 19 23 1012.1 1012.0 0.0
16/02:00pm 28.8 23.2 12.2 35 9.7 ENE 33 43 18 23 1012.1 1012.0 0.0
16/01:30pm 28.7 23.4 14.1 40 8.8 ENE 35 44 19 24 1012.3 1012.2 0.0
16/01:00pm 28.7 23.0 14.1 40 8.8 ENE 37 44 20 24 1012.8 1012.7 0.0
16/12:30pm 29.4 23.9 14.8 41 8.9 ENE 37 44 20 24 1013.2 1013.1 0.0
16/12:00pm 29.5 24.7 15.6 43 8.6 ENE 35 44 19 24 1013.6 1013.5 0.0
16/11:30am 29.3 26.1 14.3 40 9.1 E 24 30 13 16 1014.1 1014.0 0.0
16/11:00am 29.9 27.3 16.0 43 8.6 ESE 24 32 13 17 1014.5 1014.4 0.0
16/10:30am 29.0 24.9 12.8 36 9.5 ESE 26 35 14 19 1015.0 1014.9 0.0
16/10:00am 28.6 24.5 13.7 40 8.9 ESE 28 32 15 17 1015.3 1015.2 0.0
16/09:30am 28.9 23.5 11.0 33 10.2 ESE 30 35 16 19 1015.5 1015.4 0.0
16/09:00am 27.9 22.7 10.1 33 10.0 ESE 28 33 15 18 1015.6 1015.5 0.0
16/08:30am 27.5 23.8 11.5 37 9.2 SE 22 26 12 14 1015.6 1015.5 0.0
16/08:00am 27.2 24.3 12.4 40 8.6 SE 19 26 10 14 1015.4 1015.3 0.0
16/07:30am 26.1 25.0 16.4 55 6.0 SSE 17 20 9 11 1015.1 1015.0 0.0
16/07:00am 25.4 23.8 15.1 53 6.2 SSE 17 20 9 11 1015.0 1014.9 0.0
16/06:30am 23.6 22.7 16.9 66 4.1 SSE 17 20 9 11 1014.8 1014.7 0.0
16/06:00am 21.2 21.2 17.2 78 2.4 SSE 13 15 7 8 1014.6 1014.5 0.0
16/05:30am 21.4 21.0 17.2 77 2.6 SSE 15 17 8 9 1014.2 1014.1 0.0
16/05:00am 21.2 22.3 18.9 87 1.4 S 11 13 6 7 1013.8 1013.7 0.0
16/04:30am 22.4 23.3 20.1 87 1.5 SSE 15 15 8 8 1013.2 1013.1 0.0
16/04:00am 22.6 23.4 19.9 85 1.7 S 15 17 8 9 1013.0 1012.9 0.0
16/03:30am 22.4 23.6 19.9 86 1.6 S 13 15 7 8 1012.9 1012.8 0.0
16/03:00am 22.6 23.8 19.9 85 1.7 S 13 15 7 8 1012.9 1012.8 0.0
16/02:30am 23.3 24.8 20.6 85 1.8 S 13 17 7 9 1012.8 1012.7 0.0
16/02:00am 22.6 23.5 19.2 81 2.2 SSE 13 15 7 8 1012.9 1012.8 0.0
16/01:30am 23.3 24.6 18.4 74 3.1 SE 9 11 5 6 1013.1 1013.0 0.0
16/01:00am 23.2 25.1 18.9 77 2.7 E 7 9 4 5 1013.2 1013.1 0.0
16/12:30am 23.2 26.3 19.4 79 2.4 ENE 2 7 1 4 1013.4 1013.3 0.0
16/12:00am 22.7 26.1 19.3 81 2.2 CALM 0 0 0 0 1013.6 1013.5 0.0
 
Date/Time
WST
Temp
°C
App
Temp
°C
Dew
Point
°C
Rel
Hum
%
Delta-T
°C
Wind Press
QNH
hPa
Press
MSL
hPa
Rain since
9am
mm
Dir  Spd
km/h
Gust
km/h
Spd
kts
Gust
kts
15/11:30pm 22.7 25.1 18.9 79 2.4 ENE 4 6 2 3 1013.5 1013.4 0.0
15/11:00pm 24.2 26.2 19.1 73 3.3 ENE 7 7 4 4 1013.5 1013.4 0.0
15/10:30pm 24.3 25.4 18.9 72 3.4 ENE 11 13 6 7 1013.6 1013.5 0.0
15/10:00pm 24.4 25.2 19.0 72 3.4 NE 13 15 7 8 1013.8 1013.7 0.0
15/09:30pm 24.6 25.2 19.4 73 3.3 NE 15 17 8 9 1013.9 1013.8 0.0
15/09:00pm 24.7 24.8 19.1 71 3.6 NE 17 19 9 10 1013.8 1013.7 0.0
15/08:30pm 24.8 24.6 19.4 72 3.5 NE 19 20 10 11 1013.6 1013.5 0.0
15/08:00pm 25.0 25.2 19.4 71 3.6 NE 17 20 9 11 1013.4 1013.3 0.0
15/07:30pm 25.4 25.2 19.3 69 3.9 NE 19 22 10 12 1013.2 1013.1 0.0
15/07:00pm 25.5 25.1 18.9 67 4.2 NE 19 20 10 11 1012.8 1012.7 0.0
15/06:30pm 25.6 25.2 19.0 67 4.2 NE 19 24 10 13 1012.4 1012.3 0.0
15/06:00pm 26.0 25.2 18.4 63 4.8 NE 20 26 11 14 1012.2 1012.1 0.0
15/05:30pm 26.4 25.3 17.7 58 5.5 ENE 20 28 11 15 1011.9 1011.8 0.0
15/05:00pm 27.0 25.0 17.5 56 6.0 NE 24 28 13 15 1011.8 1011.7 0.0
15/04:30pm 27.6 25.9 17.2 53 6.5 ENE 22 28 12 15 1011.6 1011.5 0.0
15/04:00pm 28.3 25.3 15.9 47 7.6 NE 26 32 14 17 1011.3 1011.2 0.0
15/03:30pm 28.3 26.7 19.2 57 5.9 NE 26 32 14 17 1011.3 1011.2 0.0
15/03:00pm 29.0 27.3 19.0 54 6.5 NE 26 33 14 18 1011.4 1011.3 0.0
15/02:30pm 29.7 27.8 19.4 54 6.7 NE 28 33 15 18 1011.5 1011.4 0.0
15/02:00pm 29.4 27.0 18.2 51 7.2 NE 28 33 15 18 1011.8 1011.7 0.0
15/01:30pm 29.5 27.6 17.7 49 7.5 NE 24 32 13 17 1012.2 1012.1 0.0
15/01:00pm 29.8 28.1 16.2 43 8.5 ENE 20 26 11 14 1012.7 1012.6 0.0
15/12:30pm 30.3 29.3 16.7 44 8.5 NE 17 20 9 11 1013.1 1013.0 0.0
15/12:00pm 29.2 30.4 19.8 57 6.2 ENE 13 15 7 8 1013.6 1013.5 0.0
15/11:30am 28.8 29.5 19.7 58 5.9 E 15 17 8 9 1014.0 1013.9 0.0
15/11:00am 28.3 28.8 19.2 57 5.9 E 15 19 8 10 1014.4 1014.3 0.0
15/10:30am 29.3 31.2 21.3 62 5.3 ESE 13 15 7 8 1014.7 1014.6 0.0
15/10:00am 29.4 30.7 20.8 60 5.7 SE 15 20 8 11 1015.0 1014.9 0.0
15/09:30am 28.7 29.7 21.0 63 5.1 SE 17 20 9 11 1015.2 1015.1 0.0
15/09:00am 27.7 29.4 21.7 70 4.0 SSE 15 17 8 9 1015.2 1015.1 0.2
15/08:30am 27.5 29.3 21.1 68 4.2 SSE 13 15 7 8 1015.1 1015.0 0.2
15/08:00am 27.0 29.8 21.5 72 3.7 SSE 9 13 5 7 1014.8 1014.7 0.0
15/07:30am 26.2 29.7 22.1 78 2.7 SSE 7 11 4 6 1014.7 1014.6 0.0
15/07:00am 25.5 29.5 23.7 90 1.2 SSE 9 11 5 6 1014.7 1014.6 0.0
15/06:30am 24.4 28.2 24.1 98 0.2 S 11 13 6 7 1014.4 1014.3 0.0
15/06:00am 23.8 26.7 23.8 100 0.0 S 15 17 8 9 1014.1 1014.0 0.0
15/05:30am 23.9 26.8 23.9 100 0.0 S 15 17 8 9 1013.9 1013.8 0.0
15/05:00am 23.9 26.8 23.9 100 0.0 S 15 19 8 10 1013.6 1013.5 0.0
15/04:30am 23.8 27.4 23.8 100 0.0 S 11 15 6 8 1013.3 1013.2 0.0
15/04:00am 23.8 27.1 23.8 100 0.0 S 13 15 7 8 1013.2 1013.1 0.0
15/03:30am 24.2 27.7 24.2 100 0.0 SSW 13 15 7 8 1013.2 1013.1 0.0
15/03:00am 24.3 27.4 24.1 99 0.1 SSW 15 17 8 9 1013.2 1013.1 0.0
15/02:30am 24.4 27.1 24.2 99 0.1 SSW 17 20 9 11 1013.2 1013.1 0.0
15/02:00am 24.6 26.9 24.4 99 0.1 SSW 20 22 11 12 1013.4 1013.3 0.0
15/01:30am 24.7 27.4 24.7 100 0.0 SSW 19 20 10 11 1013.8 1013.7 0.0
15/01:00am 24.7 28.0 24.5 99 0.1 SW 15 17 8 9 1013.9 1013.8 0.0
15/12:30am 24.6 28.3 24.6 100 0.0 SW 13 15 7 8 1014.1 1014.0 0.0
15/12:00am 24.3 28.6 24.3 100 0.0 W 9 11 5 6 1014.1 1014.0 0.0
 
Date/Time
WST
Temp
°C
App
Temp
°C
Dew
Point
°C
Rel
Hum
%
Delta-T
°C
Wind Press
QNH
hPa
Press
MSL
hPa
Rain since
9am
mm
Dir  Spd
km/h
Gust
km/h
Spd
kts
Gust
kts
14/11:30pm 24.1 28.9 24.1 100 0.0 NW 6 7 3 4 1014.2 1014.1 0.0
14/11:00pm 24.2 28.8 24.2 100 0.0 NW 7 9 4 5 1014.2 1014.1 0.0
14/10:30pm 24.0 28.1 24.0 100 0.0 NW 9 11 5 6 1014.1 1014.0 0.0
14/10:00pm 23.8 27.8 23.8 100 0.0 NNW 9 9 5 5 1014.1 1014.0 0.0
14/09:30pm 24.6 29.4 24.4 99 0.1 N 7 9 4 5 1014.1 1014.0 0.0
14/09:00pm 24.7 29.6 24.4 98 0.2 NNE 6 7 3 4 1014.0 1013.9 0.0
14/08:30pm 25.3 29.2 24.8 97 0.3 NNE 13 15 7 8 1013.6 1013.5 0.0
14/08:00pm 25.3 29.2 24.8 97 0.3 NNE 13 15 7 8 1013.3 1013.2 0.0
14/07:30pm 25.2 29.0 24.7 97 0.3 NE 13 15 7 8 1013.2 1013.1 0.0
14/07:00pm 25.4 28.8 24.0 92 1.0 NE 13 15 7 8 1012.9 1012.8 0.0
14/06:30pm 25.6 28.2 23.3 87 1.6 NE 15 17 8 9 1012.3 1012.2 0.0
14/06:00pm 25.8 28.7 23.1 85 1.8 NE 13 17 7 9 1011.9 1011.8 0.0
14/05:30pm 26.2 27.7 22.7 81 2.4 NE 19 22 10 12 1011.4 1011.3 0.0
14/05:00pm 27.0 28.8 22.6 77 3.0 NE 17 20 9 11 1011.3 1011.2 0.0
14/04:30pm 27.8 28.8 22.1 71 3.8 NE 20 26 11 14 1011.0 1010.9 0.0
14/04:00pm 28.6 29.6 22.1 68 4.4 NE 20 26 11 14 1010.9 1010.8 0.0
14/03:30pm 28.6 29.5 21.9 67 4.5 NE 20 28 11 15 1010.9 1010.8 0.0
14/03:00pm 29.0 29.4 21.7 64 4.9 NE 22 28 12 15 1010.8 1010.7 0.0
14/02:30pm 29.5 29.7 21.4 61 5.4 NE 22 26 12 14 1010.9 1010.8 0.0
14/02:00pm 29.2 29.8 21.4 63 5.2 NE 20 28 11 15 1011.1 1011.0 0.0
14/01:30pm 29.2 29.7 21.2 62 5.3 NE 20 26 11 14 1011.5 1011.4 0.0
14/01:00pm 28.8 28.5 20.3 60 5.6 ENE 22 30 12 16 1012.1 1012.0 0.0
14/12:30pm 28.5 28.1 19.4 57 5.9 ENE 20 24 11 13 1012.6 1012.5 0.0
14/12:00pm 29.4 29.3 17.9 50 7.3 ENE 15 20 8 11 1013.0 1012.9 0.0
14/11:30am 29.9 31.2 19.3 53 6.9 E 11 15 6 8 1013.4 1013.3 0.0
14/11:00am 29.4 31.0 20.0 57 6.2 E 11 15 6 8 1013.7 1013.6 0.0
14/10:30am 29.1 31.5 21.6 64 5.0 ESE 11 15 6 8 1014.1 1014.0 0.0
14/10:00am 28.2 29.4 20.0 61 5.4 SE 13 17 7 9 1014.3 1014.2 0.0
14/09:30am 28.8 29.8 20.3 60 5.6 SSE 15 17 8 9 1014.6 1014.5 0.0
14/09:00am 27.9 29.0 21.2 67 4.5 SSE 17 20 9 11 1014.6 1014.5 0.0
14/08:30am 27.4 29.0 22.1 73 3.6 SSE 17 19 9 10 1014.4 1014.3 0.0
14/08:00am 27.1 29.3 21.8 73 3.5 SSE 13 15 7 8 1014.1 1014.0 0.0
14/07:30am 26.7 28.8 21.7 74 3.3 SE 13 15 7 8 1014.0 1013.9 0.0
14/07:00am 26.0 28.7 22.9 83 2.1 SSE 13 15 7 8 1013.8 1013.7 0.0
14/06:30am 24.8 28.3 23.6 93 0.8 S 11 15 6 8 1013.5 1013.4 0.0
14/06:00am 23.9 27.0 23.6 98 0.2 S 13 13 7 7 1013.1 1013.0 0.0
14/05:30am 23.8 26.9 23.5 98 0.2 SSW 13 15 7 8 1012.8 1012.7 0.0
14/05:00am 23.9 27.0 23.6 98 0.2 S 13 17 7 9 1012.7 1012.6 0.0
14/04:30am 24.1 27.4 23.8 98 0.2 SSW 13 15 7 8 1012.7 1012.6 0.0
14/04:00am 24.0 27.2 23.7 98 0.2 S 13 13 7 7 1012.5 1012.4 0.0
14/03:30am 24.1 27.4 23.8 98 0.2 SSW 13 15 7 8 1012.4 1012.3 0.0
14/03:00am 24.2 27.5 23.9 98 0.2 SSW 13 17 7 9 1012.5 1012.4 0.0
14/02:30am 24.4 27.5 24.2 99 0.1 SSW 15 17 8 9 1012.6 1012.5 0.0
14/02:00am 24.4 28.0 24.4 100 0.0 SSW 13 15 7 8 1012.6 1012.5 0.0
14/01:30am 24.7 28.8 24.5 99 0.1 SSW 11 11 6 6 1012.9 1012.8 0.0
14/01:00am 24.4 28.8 24.4 100 0.0 N 9 11 5 6 1013.1 1013.0 0.0
14/12:30am 23.9 29.5 23.6 98 0.2 CALM 0 0 0 0 1013.3 1013.2 0.0
14/12:00am 24.6 29.1 23.9 96 0.5 NNE 7 9 4 5 1013.5 1013.4 0.0
 
Date/Time
WST
Temp
°C
App
Temp
°C
Dew
Point
°C
Rel
Hum
%
Delta-T
°C
Wind Press
QNH
hPa
Press
MSL
hPa
Rain since
9am
mm
Dir  Spd
km/h
Gust
km/h
Spd
kts
Gust
kts
13/11:30pm 25.0 28.3 23.2 90 1.2 NNE 11 15 6 8 1013.6 1013.5 0.0
13/11:00pm 25.1 27.9 23.0 88 1.4 NE 13 17 7 9 1013.8 1013.7 0.0
13/10:30pm 25.2 27.5 22.7 86 1.7 NE 15 17 8 9 1013.7 1013.6 0.0
13/10:00pm 25.2 27.5 22.7 86 1.7 NE 15 17 8 9 1013.8 1013.7 0.0
13/09:30pm 25.3 27.5 22.6 85 1.8 NE 15 19 8 10 1013.7 1013.6 0.0
13/09:00pm 25.4 27.4 22.3 83 2.1 ENE 15 19 8 10 1013.6 1013.5 0.0
13/08:30pm 25.6 26.8 22.1 81 2.3 ENE 19 22 10 12 1013.4 1013.3 0.0
13/08:00pm 25.6 26.4 21.7 79 2.6 ENE 20 28 11 15 1013.2 1013.1 0.0
13/07:30pm 25.6 25.9 21.5 78 2.7 ENE 22 28 12 15 1013.0 1012.9 0.0
13/07:00pm 25.6 25.8 21.3 77 2.8 ENE 22 28 12 15 1012.7 1012.6 0.0
13/06:30pm 25.7 25.6 20.7 74 3.3 ENE 22 32 12 17 1012.2 1012.1 0.0
13/06:00pm 25.8 25.2 20.6 73 3.4 ENE 24 30 13 16 1011.9 1011.8 0.0
13/05:30pm 26.0 24.9 20.3 71 3.7 ENE 26 32 14 17 1011.6 1011.5 0.0
13/05:00pm 26.5 25.7 20.8 71 3.8 ENE 26 35 14 19 1011.3 1011.2 0.0
13/04:30pm 27.1 24.9 20.4 66 4.4 NE 32 41 17 22 1011.2 1011.1 0.0
13/04:00pm 27.6 25.5 19.7 62 5.1 NE 30 39 16 21 1011.1 1011.0 0.0

Other formats

Comma delimited format used in spreadsheet applications
http://www.bom.gov.au/fwo/IDW60801/IDW60801.94102.axf

JavaScript Object Notation format (JSON) in row-major order
http://www.bom.gov.au/fwo/IDW60801/IDW60801.94102.json

Data quality

Most of these data are generated automatically and are frequently updated. Quality checks on data are not normally performed. It is possible for incorrect values to appear. Refer to information at About Latest Weather Observations and please check the disclaimer before using these data.